Time;durP1;ratioP1;P1;durP2;ratioP2;P2;SDS_P1;SDS_P2;PMS_P1;PMS_P2;Temp;Humidity;BMP_temperature;BMP_pressure;BME280_temperature;BME280_humidity;BME280_pressure;Samples;Min_cycle;Max_cycle;Signal;HPM_P1;HPM_P2
2021/03/26 00:02:41;;;;;;;12.15;9.52;;;;;;;;;;6089751;29;20028;-85
2021/03/26 00:05:42;;;;;;;16.88;10.02;;;;;;;;;;6105493;29;20032;-85
2021/03/26 00:08:43;;;;;;;13.60;10.07;;;;;;;;;;6105634;29;20052;-85
2021/03/26 00:11:45;;;;;;;14.50;10.00;;;7.30;99.90;;;;;;6089528;29;20031;-86
2021/03/26 00:14:45;;;;;;;16.48;9.90;;;7.30;99.90;;;;;;6074350;29;20046;-85
2021/03/26 00:17:46;;;;;;;12.00;9.20;;;7.30;99.90;;;;;;6079161;29;20032;-85
2021/03/26 00:20:46;;;;;;;17.20;10.38;;;7.20;99.20;;;;;;6074141;29;20106;-85
2021/03/26 00:23:48;;;;;;;13.05;10.10;;;;;;;;;;6089792;29;20032;-87
2021/03/26 00:26:48;;;;;;;17.38;10.07;;;7.20;97.20;;;;;;6105472;29;20083;-86
2021/03/26 00:29:49;;;;;;;13.40;9.70;;;7.60;98.60;;;;;;6073867;29;20032;-85
2021/03/26 00:32:49;;;;;;;14.75;9.32;;;7.80;98.40;;;;;;6074020;29;20483;-86
2021/03/26 00:35:50;;;;;;;17.02;10.35;;;;;;;;;;6075827;29;20399;-87
2021/03/26 00:38:51;;;;;;;16.48;11.88;;;7.40;99.90;;;;;;6110400;29;20457;-86
2021/03/26 00:41:52;;;;;;;17.42;10.15;;;;;;;;;;6078654;29;20039;-87
2021/03/26 00:44:53;;;;;;;11.50;9.40;;;7.50;99.90;;;;;;6094596;29;20446;-86
2021/03/26 00:47:54;;;;;;;18.77;10.27;;;;;;;;;;6085082;29;20039;-86
2021/03/26 00:50:57;;;;;;;14.98;9.45;;;7.50;97.20;;;;;;6094324;29;20557;-86
2021/03/26 00:53:57;;;;;;;17.13;10.25;;;7.90;98.00;;;;;;6094206;29;20386;-86
2021/03/26 00:56:58;;;;;;;15.90;10.57;;;7.40;97.80;;;;;;6078520;29;20130;-87
2021/03/26 01:00:05;;;;;;;13.40;10.00;;;7.80;98.80;;;;;;6078442;29;20043;-86
2021/03/26 01:03:06;;;;;;;14.93;9.73;;;9.30;99.00;;;;;;6094292;29;20028;-86
2021/03/26 01:06:08;;;;;;;14.05;10.55;;;8.10;98.90;;;;;;6078178;29;20036;-85
2021/03/26 01:09:09;;;;;;;15.03;11.57;;;;;;;;;;6078431;29;20042;-85
2021/03/26 01:12:10;;;;;;;15.50;11.02;;;6.90;97.60;;;;;;6109084;29;20397;-85
2021/03/26 01:15:12;;;;;;;16.27;10.18;;;7.00;99.60;;;;;;6077657;29;20040;-85
2021/03/26 01:18:29;;;;;;;16.48;9.95;;;7.70;99.40;;;;;;6109054;29;20034;-85
2021/03/26 01:21:31;;;;;;;13.07;9.15;;;7.00;98.90;;;;;;6078350;29;20041;-85
2021/03/26 01:24:32;;;;;;;12.30;8.52;;;7.30;98.50;;;;;;6077814;29;20083;-85
2021/03/26 01:27:34;;;;;;;12.57;8.65;;;6.90;98.00;;;;;;6109441;29;20040;-88
2021/03/26 01:30:35;;;;;;;14.30;8.68;;;6.90;99.90;;;;;;6078079;29;20110;-88
2021/03/26 01:33:36;;;;;;;12.75;8.68;;;;;;;;;;6077820;29;20451;-87
2021/03/26 01:36:36;;;;;;;10.57;8.73;;;6.90;97.10;;;;;;6093447;29;20040;-87
2021/03/26 01:39:37;;;;;;;10.93;8.25;;;6.80;99.90;;;;;;6077373;29;20024;-86
2021/03/26 01:42:38;;;;;;;13.40;8.52;;;;;;;;;;6077609;29;20036;-85
2021/03/26 01:45:39;;;;;;;11.77;8.15;;;7.10;96.40;;;;;;6084907;29;20052;-87
2021/03/26 01:48:42;;;;;;;11.20;7.80;;;7.00;98.20;;;;;;6069740;29;20058;-87
2021/03/26 01:51:44;;;;;;;14.07;8.77;;;7.00;99.90;;;;;;6069738;29;20111;-85
2021/03/26 01:54:45;;;;;;;;;;;7.40;97.90;;;;;;6070067;29;20032;-85
2021/03/26 01:57:46;;;;;;;11.95;8.32;;;8.00;98.60;;;;;;6084891;29;19934;-87
2021/03/26 02:01:02;;;;;;;12.00;8.48;;;6.80;98.80;;;;;;6069456;29;20032;-86
2021/03/26 02:04:05;;;;;;;10.32;8.45;;;6.80;99.00;;;;;;6069663;29;20459;-85
2021/03/26 02:07:05;;;;;;;13.07;8.70;;;6.60;98.50;;;;;;6085117;29;20388;-85
2021/03/26 02:10:06;;;;;;;15.60;8.68;;;7.60;99.10;;;;;;6069316;29;20039;-88
2021/03/26 02:13:08;;;;;;;14.00;8.60;;;6.50;97.80;;;;;;6069429;29;20527;-87
2021/03/26 02:16:09;;;;;;;14.35;8.55;;;;;;;;;;6068917;29;20518;-84
2021/03/26 02:19:16;;;;;;;14.02;9.20;;;6.40;97.20;;;;;;6084396;29;20475;-84
2021/03/26 02:22:17;;;;;;;12.43;8.27;;;6.40;97.60;;;;;;6069592;29;20388;-84
2021/03/26 02:25:18;;;;;;;12.48;9.43;;;6.40;99.20;;;;;;6068451;29;20096;-84
2021/03/26 02:28:19;;;;;;;15.73;8.98;;;6.00;99.90;;;;;;6068766;29;20043;-84
2021/03/26 02:31:19;;;;;;;15.65;9.02;;;7.10;99.90;;;;;;6068263;29;20032;-85
2021/03/26 02:34:21;;;;;;;13.02;9.23;;;6.00;99.90;;;;;;6068709;29;20115;-85
2021/03/26 02:37:21;;;;;;;12.77;9.10;;;5.50;99.90;;;;;;6067722;29;20092;-84
2021/03/26 02:40:40;;;;;;;14.18;9.30;;;5.90;99.60;;;;;;6068648;29;20115;-85
2021/03/26 02:44:04;;;;;;;11.55;8.52;;;5.80;98.50;;;;;;6085734;29;20387;-85
2021/03/26 02:47:10;;;;;;;15.07;9.15;;;5.70;99.40;;;;;;6085029;29;20058;-85
2021/03/26 02:50:43;;;;;;;12.68;8.43;;;5.60;99.90;;;;;;6083543;29;20040;-85
2021/03/26 02:53:50;;;;;;;11.82;9.35;;;5.40;99.80;;;;;;6070616;29;20058;-85
2021/03/26 02:56:56;;;;;;;15.95;8.90;;;5.70;99.90;;;;;;6068340;29;20439;-85
2021/03/26 03:00:05;;;;;;;10.32;8.40;;;5.30;99.90;;;;;;6082949;29;20032;-84
2021/03/26 03:03:06;;;;;;;17.15;10.23;;;;;;;;;;6068182;29;20032;-84
2021/03/26 03:06:18;;;;;;;14.15;9.27;;;5.20;99.90;;;;;;6083631;29;20036;-85
2021/03/26 03:09:19;;;;;;;13.68;9.75;;;;;;;;;;6068801;29;20039;-85
2021/03/26 03:12:30;;;;;;;18.25;9.60;;;5.20;99.90;;;;;;6083152;29;20059;-86
2021/03/26 03:15:31;;;;;;;15.25;9.43;;;5.30;99.90;;;;;;6068274;29;20075;-86
2021/03/26 03:18:40;;;;;;;16.15;9.95;;;4.90;99.90;;;;;;6068048;29;20059;-87
2021/03/26 03:21:55;;;;;;;13.45;9.85;;;5.00;99.90;;;;;;6084216;29;20024;-86
2021/03/26 03:24:58;;;;;;;12.35;9.18;;;5.00;99.90;;;;;;6085038;29;20032;-86
2021/03/26 03:28:04;;;;;;;;;;;5.00;99.90;;;;;;6068034;29;20074;-87
2021/03/26 03:31:43;;;;;;;17.13;10.73;;;5.00;99.90;;;;;;6098667;29;19942;-87
2021/03/26 03:34:58;;;;;;;18.08;10.13;;;4.90;99.90;;;;;;6085421;29;20035;-86
2021/03/26 03:38:27;;;;;;;13.90;9.80;;;5.00;99.90;;;;;;6068366;29;20032;-87
2021/03/26 03:41:34;;;;;;;14.90;9.88;;;5.00;99.90;;;;;;6085752;29;20056;-88
2021/03/26 03:44:34;;;;;;;14.32;10.05;;;5.00;99.90;;;;;;6072247;29;20059;-85
2021/03/26 03:47:38;;;;;;;14.25;10.88;;;4.70;99.90;;;;;;6106153;29;20027;-86
2021/03/26 03:50:42;;;;;;;17.40;10.52;;;4.60;99.90;;;;;;6076844;29;20102;-86
2021/03/26 03:54:03;;;;;;;16.17;10.15;;;4.70;99.90;;;;;;6089037;29;20042;-86
2021/03/26 03:57:07;;;;;;;18.30;10.32;;;4.60;99.90;;;;;;6094670;29;20043;-87
2021/03/26 04:00:10;;;;;;;17.05;9.93;;;4.90;99.90;;;;;;6090908;29;20032;-86
2021/03/26 04:03:36;;;;;;;20.83;10.77;;;4.60;99.90;;;;;;6090178;29;20035;-86
2021/03/26 04:06:56;;;;;;;14.07;10.27;;;4.80;99.90;;;;;;6093262;29;20395;-87
2021/03/26 04:10:07;;;;;;;15.88;10.45;;;4.40;99.90;;;;;;6105980;29;20055;-86
2021/03/26 04:13:10;;;;;;;16.80;10.90;;;4.40;99.90;;;;;;6105793;29;20047;-85
2021/03/26 04:16:12;;;;;;;16.02;10.45;;;4.40;99.90;;;;;;6074743;29;20047;-86
2021/03/26 04:19:18;;;;;;;14.15;10.10;;;4.70;99.90;;;;;;6074620;29;20138;-87
2021/03/26 04:22:21;;;;;;;14.07;10.18;;;4.00;99.90;;;;;;6090087;29;20027;-85
2021/03/26 04:25:26;;;;;;;;;;;6.10;99.90;;;;;;6090786;29;20043;-87
2021/03/26 04:28:30;;;;;;;14.20;10.55;;;4.10;99.90;;;;;;6106055;29;19911;-86
2021/03/26 04:31:41;;;;;;;13.93;9.75;;;4.90;99.90;;;;;;6074549;29;20122;-87
2021/03/26 04:34:42;;;;;;;27.40;15.15;;;4.40;99.90;;;;;;6069182;29;20494;-86
2021/03/26 04:37:55;;;;;;;21.73;14.05;;;4.00;99.90;;;;;;6089948;29;20032;-86
2021/03/26 04:41:04;;;;;;;;;;;4.00;99.90;;;;;;6090168;29;20028;-86
2021/03/26 04:44:10;;;;;;;13.57;10.13;;;4.10;99.90;;;;;;6099598;29;19950;-86
2021/03/26 04:47:41;;;;;;;16.48;11.02;;;4.00;99.90;;;;;;6106123;29;20032;-87
2021/03/26 04:51:03;;;;;;;15.68;10.60;;;4.10;99.90;;;;;;6039671;29;20041;-86
2021/03/26 04:54:07;;;;;;;21.65;11.52;;;4.30;99.90;;;;;;6074109;29;20480;-86
2021/03/26 04:57:16;;;;;;;15.75;10.63;;;4.30;99.90;;;;;;6106328;29;20044;-86
2021/03/26 05:00:27;;;;;;;19.33;10.55;;;4.30;99.90;;;;;;6090202;29;20095;-85
2021/03/26 05:03:33;;;;;;;13.35;9.77;;;4.30;99.90;;;;;;6089712;29;20024;-85
2021/03/26 05:06:43;;;;;;;14.32;9.63;;;4.20;99.90;;;;;;6075214;29;20031;-85
2021/03/26 05:09:45;;;;;;;15.38;10.57;;;3.90;99.90;;;;;;6074712;29;20036;-88
2021/03/26 05:12:51;;;;;;;16.70;12.40;;;3.80;99.90;;;;;;6074314;29;20032;-86
2021/03/26 05:15:59;;;;;;;19.75;12.45;;;5.10;99.90;;;;;;6073682;29;20047;-84
2021/03/26 05:19:03;;;;;;;12.82;10.05;;;3.90;99.90;;;;;;6074367;29;20167;-85
2021/03/26 05:22:35;;;;;;;17.65;11.88;;;4.20;99.90;;;;;;6107285;29;20115;-85
2021/03/26 05:25:38;;;;;;;13.07;10.47;;;3.60;99.90;;;;;;6095108;29;20043;-85
2021/03/26 05:28:40;;;;;;;;;;;3.80;99.90;;;;;;6078514;29;20073;-84
2021/03/26 05:31:45;;;;;;;21.52;11.75;;;4.70;99.90;;;;;;6093119;29;19997;-86
2021/03/26 05:35:02;;;;;;;16.33;11.27;;;6.00;99.90;;;;;;6108257;29;20032;-84
2021/03/26 05:38:15;;;;;;;14.45;10.68;;;3.60;99.90;;;;;;6109040;29;20039;-85
2021/03/26 05:41:49;;;;;;;15.05;11.13;;;3.70;99.90;;;;;;6093905;29;20035;-90
2021/03/26 05:48:55;;;;;;;15.18;11.13;;;3.80;99.90;;;;;;6117978;29;20035;-86
2021/03/26 05:52:35;;;;;;;18.55;13.18;;;3.70;99.90;;;;;;6093273;29;20048;-85
2021/03/26 05:55:41;;;;;;;13.68;11.55;;;3.90;99.90;;;;;;6092224;29;20495;-85
2021/03/26 05:59:15;;;;;;;25.92;11.35;;;4.90;99.90;;;;;;6092158;29;20036;-86
2021/03/26 06:02:51;;;;;;;18.40;11.13;;;4.70;99.90;;;;;;6110183;29;20043;-87
2021/03/26 06:06:28;;;;;;;17.17;10.75;;;4.90;99.90;;;;;;6091584;29;20036;-82
2021/03/26 06:09:44;;;;;;;34.25;17.25;;;5.50;99.90;;;;;;6092522;29;20059;-86
2021/03/26 06:13:04;;;;;;;17.55;9.73;;;6.10;99.20;;;;;;6125920;29;20467;-86
2021/03/26 06:16:30;;;;;;;18.48;10.60;;;7.40;99.90;;;;;;6092210;29;20076;-88
2021/03/26 06:19:43;;;;;;;14.13;9.85;;;7.70;98.30;;;;;;6092425;29;20032;-86
2021/03/26 06:23:11;;;;;;;15.45;9.63;;;8.30;99.90;;;;;;6107823;29;20039;-86
2021/03/26 06:26:37;;;;;;;11.68;9.48;;;8.40;99.90;;;;;;6124466;29;20390;-86
2021/03/26 06:29:38;;;;;;;15.93;10.65;;;;;;;;;;6081091;29;20126;-88
2021/03/26 06:32:48;;;;;;;15.85;10.02;;;7.00;99.90;;;;;;6106813;29;20027;-88
2021/03/26 06:36:17;;;;;;;18.17;11.73;;;8.70;94.90;;;;;;6108591;29;20048;-87
2021/03/26 06:39:42;;;;;;;19.50;11.32;;;9.10;95.10;;;;;;6088239;29;20467;-88
2021/03/26 06:43:16;;;;;;;14.18;9.35;;;9.30;94.50;;;;;;6108538;29;20877;-84
2021/03/26 06:46:41;;;;;;;12.77;9.93;;;9.30;94.60;;;;;;6068145;29;20052;-86
2021/03/26 06:49:55;;;;;;;19.83;10.65;;;9.70;99.90;;;;;;6124914;29;20118;-88
2021/03/26 06:53:37;;;;;;;14.15;9.52;;;10.50;94.40;;;;;;6107000;29;20386;-89
2021/03/26 06:56:59;;;;;;;15.02;10.65;;;10.20;99.90;;;;;;6014183;29;20075;-88
2021/03/26 07:00:00;;;;;;;14.63;11.00;;;;;;;;;;6106230;29;20035;-88
2021/03/26 07:03:10;;;;;;;16.27;10.95;;;10.70;99.90;;;;;;6106360;29;20031;-88
2021/03/26 07:06:50;;;;;;;13.90;10.27;;;11.20;99.90;;;;;;6091575;29;20391;-87
2021/03/26 07:10:19;;;;;;;18.08;10.82;;;11.20;99.90;;;;;;6103594;29;20039;-87
2021/03/26 07:13:46;;;;;;;13.68;9.77;;;11.20;99.30;;;;;;6091411;29;20502;-88
2021/03/26 07:17:01;;;;;;;16.13;10.27;;;11.60;97.20;;;;;;6092702;29;20122;-88
2021/03/26 07:20:11;;;;;;;14.20;10.48;;;11.80;90.20;;;;;;6107009;29;20031;-88
2021/03/26 07:23:30;;;;;;;14.65;10.20;;;12.20;88.30;;;;;;6106361;29;20028;-87
2021/03/26 07:26:43;;;;;;;15.90;10.38;;;13.20;80.20;;;;;;6106889;29;20027;-88
2021/03/26 07:29:50;;;;;;;16.67;10.75;;;13.90;92.30;;;;;;6122708;29;20036;-88
2021/03/26 07:33:09;;;;;;;15.88;9.75;;;14.00;89.20;;;;;;6106450;29;20067;-88
2021/03/26 07:36:37;;;;;;;16.17;11.15;;;14.40;72.70;;;;;;6106545;29;20550;-87
2021/03/26 07:39:42;;;;;;;12.38;9.10;;;14.70;69.60;;;;;;6079741;29;20063;-88
2021/03/26 07:43:05;;;;;;;13.70;9.30;;;15.40;87.70;;;;;;6075767;29;20034;-89
2021/03/26 07:46:09;;;;;;;12.90;9.20;;;;;;;;;;6091583;29;20055;-89
2021/03/26 07:49:39;;;;;;;19.85;10.52;;;15.50;84.50;;;;;;6082959;29;20039;-89
2021/03/26 07:52:47;;;;;;;14.48;9.45;;;15.60;67.80;;;;;;6072464;29;20032;-88
2021/03/26 07:56:17;;;;;;;15.65;9.50;;;15.50;70.40;;;;;;6052646;29;20044;-89
2021/03/26 07:59:54;;;;;;;14.52;9.13;;;16.90;84.00;;;;;;6060813;29;20373;-88
2021/03/26 08:03:16;;;;;;;18.90;12.45;;;17.00;83.40;;;;;;6063285;29;20063;-88
2021/03/26 08:06:51;;;;;;;15.17;8.93;;;17.20;62.60;;;;;;6098508;29;20039;-88
2021/03/26 08:10:16;;;;;;;15.20;9.27;;;17.30;60.90;;;;;;6057771;29;20040;-88
2021/03/26 08:13:36;;;;;;;12.15;9.75;;;18.30;60.70;;;;;;6060858;29;20029;-88
2021/03/26 08:17:15;;;;;;;13.38;9.32;;;18.10;58.60;;;;;;6065751;29;20452;-88
2021/03/26 08:20:29;;;;;;;14.80;8.70;;;18.00;56.90;;;;;;6082520;29;20036;-89
2021/03/26 08:23:43;;;;;;;14.95;9.65;;;18.10;56.80;;;;;;6059028;29;20039;-89
2021/03/26 08:27:01;;;;;;;12.95;9.45;;;18.80;55.30;;;;;;6067542;29;20032;-88
2021/03/26 08:30:31;;;;;;;14.15;9.43;;;19.40;53.70;;;;;;6051924;29;20467;-89
2021/03/26 08:34:23;;;;;;;13.27;9.38;;;19.80;70.40;;;;;;6082218;29;20042;-89
2021/03/26 08:37:29;;;;;;;11.55;8.57;;;20.20;73.20;;;;;;6049864;29;20055;-89
2021/03/26 08:40:59;;;;;;;14.82;9.18;;;20.20;51.80;;;;;;6066592;29;20043;-89
2021/03/26 08:43:59;;;;;;;12.18;8.80;;;20.80;49.30;;;;;;6069031;29;20028;-86
2021/03/26 08:47:00;;;;;;;14.73;9.32;;;19.30;52.60;;;;;;6050674;29;20498;-88
2021/03/26 08:50:23;;;;;;;14.88;9.65;;;21.60;55.40;;;;;;6058128;29;20032;-88
2021/03/26 08:54:11;;;;;;;13.18;9.60;;;21.60;49.40;;;;;;6067174;29;20047;-88
2021/03/26 08:57:20;;;;;;;12.45;9.82;;;21.90;71.00;;;;;;5979470;29;20624;-88
2021/03/26 09:00:49;;;;;;;12.27;8.98;;;21.70;86.10;;;;;;6059949;29;20032;-85
2021/03/26 09:04:21;;;;;;;9.93;8.50;;;21.70;89.10;;;;;;6084666;29;20099;-87
2021/03/26 09:07:37;;;;;;;14.25;9.48;;;22.10;54.00;;;;;;6072823;29;20070;-88
2021/03/26 09:10:56;;;;;;;14.38;9.10;;;22.20;54.00;;;;;;6070698;29;20047;-87
2021/03/26 09:13:57;;;;;;;14.20;9.88;;;;;;;;;;6086231;29;20032;-86
2021/03/26 09:17:00;;;;;;;14.98;9.48;;;22.20;66.90;;;;;;6085673;29;20083;-88
2021/03/26 09:20:25;;;;;;;14.32;9.13;;;22.30;57.30;;;;;;6055913;29;20048;-88
2021/03/26 09:23:48;;;;;;;11.70;8.35;;;22.20;55.20;;;;;;6085662;29;20028;-88
2021/03/26 09:26:49;;;;;;;13.10;9.13;;;22.40;55.10;;;;;;6076291;29;20028;-88
2021/03/26 09:30:09;;;;;;;11.18;8.73;;;22.60;57.10;;;;;;6085901;29;20128;-88
2021/03/26 09:33:14;;;;;;;11.35;8.15;;;22.50;51.70;;;;;;6070233;29;20040;-86
2021/03/26 09:36:18;;;;;;;10.57;8.23;;;22.30;55.90;;;;;;6054140;29;20036;-87
2021/03/26 09:39:18;;;;;;;10.98;8.00;;;22.70;59.40;;;;;;6054580;29;20087;-87
2021/03/26 09:42:40;;;;;;;14.27;8.38;;;22.80;52.40;;;;;;6045123;29;20460;-85
2021/03/26 09:46:04;;;;;;;12.40;8.52;;;23.30;45.20;;;;;;6084597;29;20048;-86
2021/03/26 09:49:19;;;;;;;11.90;8.27;;;23.40;51.00;;;;;;6070442;29;20036;-86
2021/03/26 09:52:42;;;;;;;12.73;7.80;;;23.50;49.00;;;;;;6085522;29;20048;-86
2021/03/26 09:55:43;;;;;;;9.05;7.32;;;23.70;47.10;;;;;;6047730;29;20051;-86
2021/03/26 09:59:01;;;;;;;12.07;7.82;;;23.60;52.00;;;;;;6064559;29;20473;-85
2021/03/26 10:02:22;;;;;;;9.82;7.57;;;23.70;50.70;;;;;;6055357;29;20408;-84
2021/03/26 10:05:28;;;;;;;16.33;6.97;;;23.70;58.40;;;;;;6080128;29;20503;-85
2021/03/26 10:12:02;;;;;;;11.25;7.68;;;23.50;64.00;;;;;;6102044;29;20036;-86
2021/03/26 10:15:12;;;;;;;13.20;9.13;;;23.70;50.40;;;;;;6071058;29;20036;-86
2021/03/26 10:18:16;;;;;;;12.98;9.13;;;23.00;65.00;;;;;;6054509;29;20036;-86
2021/03/26 10:21:24;;;;;;;10.70;8.70;;;23.70;52.50;;;;;;6053966;29;20027;-88
2021/03/26 10:24:36;;;;;;;10.90;7.90;;;23.60;52.70;;;;;;6053257;29;20036;-86
2021/03/26 10:27:37;;;;;;;10.23;6.93;;;23.60;53.70;;;;;;6054425;29;20095;-86
2021/03/26 10:30:50;;;;;;;11.68;7.10;;;23.90;53.00;;;;;;6054152;29;20272;-86
2021/03/26 10:33:52;;;;;;;11.02;8.43;;;24.20;48.40;;;;;;6054662;29;20038;-86
2021/03/26 10:36:57;;;;;;;11.35;7.82;;;23.90;44.80;;;;;;6053733;29;20047;-86
2021/03/26 10:40:32;;;;;;;9.05;7.13;;;23.80;44.60;;;;;;6053697;29;20083;-86
2021/03/26 10:43:46;;;;;;;9.18;7.15;;;23.50;42.70;;;;;;6082790;29;20032;-85
2021/03/26 10:46:49;;;;;;;11.02;8.00;;;23.60;44.20;;;;;;6073769;29;20055;-85
2021/03/26 10:50:00;;;;;;;10.52;6.55;;;23.90;46.30;;;;;;6076470;29;20043;-86
2021/03/26 10:53:02;;;;;;;10.50;7.35;;;23.90;43.70;;;;;;6092770;29;20410;-88
2021/03/26 10:56:33;;;;;;;9.45;7.05;;;23.90;44.90;;;;;;6090963;29;20054;-86
2021/03/26 10:59:52;;;;;;;8.18;6.72;;;23.70;44.00;;;;;;6109707;29;20151;-86
2021/03/26 11:03:18;;;;;;;10.38;6.47;;;23.50;44.70;;;;;;6107580;29;20493;-89
2021/03/26 11:06:29;;;;;;;9.02;7.00;;;23.50;43.70;;;;;;6110140;29;20151;-87
2021/03/26 11:09:42;;;;;;;9.57;6.13;;;23.70;43.50;;;;;;6085365;29;20040;-85
2021/03/26 11:12:52;;;;;;;10.40;6.20;;;23.60;44.60;;;;;;6076838;29;20044;-86
2021/03/26 11:15:59;;;;;;;7.40;5.85;;;22.80;72.70;;;;;;6100775;29;20477;-86
2021/03/26 11:19:02;;;;;;;9.18;6.10;;;22.40;77.30;;;;;;6075335;29;20047;-84
2021/03/26 11:22:19;;;;;;;9.75;6.10;;;22.10;46.10;;;;;;6076029;29;20028;-85
2021/03/26 11:25:23;;;;;;;8.25;6.15;;;21.50;46.50;;;;;;6093276;29;20455;-86
2021/03/26 11:28:39;;;;;;;8.43;5.88;;;21.60;48.50;;;;;;6075532;29;20054;-87
2021/03/26 11:31:47;;;;;;;9.98;5.70;;;21.00;49.50;;;;;;6077518;29;20467;-84
2021/03/26 11:35:00;;;;;;;7.50;5.45;;;21.10;48.90;;;;;;6075799;29;20060;-87
2021/03/26 11:38:08;;;;;;;7.50;5.38;;;20.70;49.30;;;;;;6091659;29;20483;-85
2021/03/26 11:41:14;;;;;;;8.35;4.78;;;20.50;48.80;;;;;;6089004;29;20459;-86
2021/03/26 11:44:15;;;;;;;6.00;4.18;;;20.40;48.30;;;;;;6076018;29;20036;-85
2021/03/26 11:47:31;;;;;;;9.03;4.50;;;20.70;49.00;;;;;;6084929;29;20478;-85
2021/03/26 11:50:48;;;;;;;16.90;5.50;;;20.90;48.30;;;;;;6075730;29;20030;-87
2021/03/26 11:54:18;;;;;;;4.68;4.05;;;22.40;48.70;;;;;;6092210;29;20036;-86
2021/03/26 11:57:35;;;;;;;7.70;4.93;;;21.90;46.80;;;;;;6105292;29;20047;-85
2021/03/26 12:00:39;;;;;;;9.20;4.78;;;22.00;46.50;;;;;;6104479;29;20035;-86
2021/03/26 12:04:00;;;;;;;7.60;4.72;;;22.20;48.70;;;;;;6088773;29;20518;-85
2021/03/26 12:07:26;;;;;;;6.53;3.65;;;22.00;48.70;;;;;;6088720;29;20027;-86
2021/03/26 12:10:43;;;;;;;4.40;3.92;;;21.70;49.10;;;;;;6086488;29;20512;-83
2021/03/26 12:14:07;;;;;;;7.22;4.22;;;21.70;46.40;;;;;;6089793;29;20032;-84
2021/03/26 12:17:38;;;;;;;6.15;3.95;;;21.20;67.10;;;;;;6122548;29;20039;-85
2021/03/26 12:20:39;;;;;;;8.20;4.47;;;20.90;46.70;;;;;;6105711;29;20062;-85
2021/03/26 12:23:43;;;;;;;5.28;3.95;;;21.40;50.60;;;;;;6074727;29;20482;-86
2021/03/26 12:26:52;;;;;;;7.35;4.00;;;21.00;48.30;;;;;;6090042;29;20533;-84
2021/03/26 12:30:11;;;;;;;4.97;4.03;;;21.00;47.00;;;;;;6074764;29;20059;-87
2021/03/26 12:33:36;;;;;;;6.30;4.35;;;20.70;66.70;;;;;;6103282;29;20062;-88
2021/03/26 12:36:44;;;;;;;5.38;4.18;;;21.20;67.20;;;;;;6079401;29;20070;-86
2021/03/26 12:39:47;;;;;;;6.97;4.18;;;20.90;47.80;;;;;;6094763;29;20036;-87
2021/03/26 12:42:48;;;;;;;6.13;4.05;;;21.00;80.20;;;;;;6080143;29;20027;-88
2021/03/26 12:46:18;;;;;;;5.25;4.25;;;20.90;63.80;;;;;;6071139;29;20142;-88
2021/03/26 12:49:25;;;;;;;4.68;4.00;;;20.90;48.90;;;;;;6103881;29;20038;-87
2021/03/26 12:53:19;;;;;;;5.97;4.15;;;21.00;48.20;;;;;;6079171;29;20046;-88
2021/03/26 12:56:45;;;;;;;7.88;5.38;;;24.20;50.70;;;;;;6110280;29;20044;-80
2021/03/26 12:59:56;;;;;;;7.35;4.88;;;21.10;46.00;;;;;;6096382;29;20467;-80
2021/03/26 13:03:02;;;;;;;5.22;4.30;;;20.90;46.00;;;;;;6109655;29;20400;-79
2021/03/26 13:06:16;;;;;;;7.32;4.95;;;21.20;68.80;;;;;;6095137;29;20031;-80
2021/03/26 13:09:23;;;;;;;9.68;4.97;;;21.30;62.50;;;;;;6109748;29;20063;-79
2021/03/26 13:12:28;;;;;;;8.07;4.70;;;21.00;59.90;;;;;;6109659;29;20566;-79
2021/03/26 13:15:29;;;;;;;6.93;4.70;;;;;;;;;;6109517;29;20050;-79
2021/03/26 13:18:30;;;;;;;5.93;4.60;;;21.30;55.80;;;;;;6109681;29;20047;-81
2021/03/26 13:21:33;;;;;;;7.18;5.55;;;20.80;48.10;;;;;;6077767;29;20439;-79
2021/03/26 13:24:55;;;;;;;8.18;5.20;;;20.50;43.20;;;;;;6126752;29;20083;-79
2021/03/26 13:27:56;;;;;;;7.03;5.50;;;20.40;47.60;;;;;;6126533;29;20035;-79
2021/03/26 13:31:08;;;;;;;8.00;4.82;;;20.00;48.80;;;;;;6126244;29;20066;-79
2021/03/26 13:34:36;;;;;;;7.97;4.47;;;19.80;47.30;;;;;;6093914;29;20073;-79
2021/03/26 13:37:37;;;;;;;8.75;4.82;;;19.40;63.50;;;;;;6090471;29;20398;-81
2021/03/26 13:40:42;;;;;;;9.00;5.40;;;19.20;47.50;;;;;;6093806;29;20422;-81
2021/03/26 13:43:43;;;;;;;10.68;4.72;;;18.70;49.40;;;;;;6092819;29;20031;-79
2021/03/26 13:46:45;;;;;;;8.68;5.43;;;18.80;48.90;;;;;;6077099;29;20058;-81
2021/03/26 13:49:57;;;;;;;7.57;5.15;;;18.70;47.50;;;;;;6093236;29;20024;-79
2021/03/26 13:53:26;;;;;;;8.77;4.75;;;18.70;50.20;;;;;;6077681;29;20027;-85
2021/03/26 13:56:29;;;;;;;10.88;5.70;;;18.70;50.20;;;;;;6108473;29;20107;-82
2021/03/26 13:59:35;;;;;;;7.18;4.88;;;18.70;50.90;;;;;;6077634;29;20039;-83
2021/03/26 14:02:37;;;;;;;6.68;5.35;;;18.70;50.90;;;;;;6077449;29;20038;-79
2021/03/26 14:05:51;;;;;;;8.18;5.25;;;18.70;51.30;;;;;;6092968;29;20036;-80
2021/03/26 14:09:14;;;;;;;6.72;5.20;;;18.60;51.00;;;;;;6094193;29;20020;-83
2021/03/26 14:12:32;;;;;;;11.10;5.78;;;18.60;51.20;;;;;;6106282;29;20035;-84
2021/03/26 14:15:33;;;;;;;11.70;6.03;;;18.60;51.30;;;;;;6092832;29;20080;-80
2021/03/26 14:18:33;;;;;;;7.18;5.57;;;18.60;80.00;;;;;;6107705;29;20044;-82
2021/03/26 14:21:39;;;;;;;10.10;5.72;;;18.60;55.80;;;;;;6091977;29;20031;-79
2021/03/26 14:24:53;;;;;;;7.93;5.47;;;18.60;51.60;;;;;;6108249;29;20043;-80
2021/03/26 14:28:14;;;;;;;7.43;4.95;;;18.40;63.70;;;;;;6106928;29;20163;-79
2021/03/26 14:31:19;;;;;;;6.78;5.20;;;18.30;52.50;;;;;;6108045;29;20111;-78
2021/03/26 14:34:22;;;;;;;7.40;5.30;;;19.10;54.90;;;;;;6092758;29;20118;-78
2021/03/26 14:37:24;;;;;;;7.78;4.95;;;18.60;53.10;;;;;;6075243;29;20054;-77
2021/03/26 14:40:26;;;;;;;8.18;4.97;;;18.80;51.40;;;;;;6107656;29;20070;-78
2021/03/26 14:43:27;;;;;;;7.10;5.78;;;19.10;51.90;;;;;;6092039;29;20079;-79
2021/03/26 14:46:27;;;;;;;7.47;5.22;;;19.30;51.70;;;;;;6075766;29;20498;-78
2021/03/26 14:49:59;;;;;;;9.63;5.47;;;19.30;50.40;;;;;;6092234;29;20028;-78
2021/03/26 14:53:04;;;;;;;8.77;5.57;;;19.90;51.60;;;;;;6094955;29;20115;-83
2021/03/26 14:56:07;;;;;;;11.38;4.97;;;19.30;51.80;;;;;;6076071;29;20043;-84
2021/03/26 14:59:31;;;;;;;7.57;5.18;;;19.30;49.60;;;;;;6091664;29;20032;-82
2021/03/26 15:02:49;;;;;;;7.97;5.10;;;19.20;48.10;;;;;;6076166;29;20028;-83
2021/03/26 15:06:04;;;;;;;7.07;4.82;;;19.10;50.90;;;;;;6077010;29;20367;-84
2021/03/26 15:09:18;;;;;;;5.93;4.70;;;19.20;50.90;;;;;;6091038;29;20415;-82
2021/03/26 15:12:37;;;;;;;6.93;4.63;;;19.20;48.70;;;;;;6077308;29;20031;-85
2021/03/26 15:15:42;;;;;;;6.93;5.00;;;19.10;48.90;;;;;;6124053;29;20087;-83
2021/03/26 15:19:03;;;;;;;5.75;4.63;;;19.00;48.90;;;;;;6091270;29;20079;-84
2021/03/26 15:22:16;;;;;;;11.23;5.38;;;18.40;78.70;;;;;;6090859;29;20246;-85
2021/03/26 15:25:25;;;;;;;10.15;5.45;;;18.60;52.30;;;;;;6075620;29;20023;-82
2021/03/26 15:28:55;;;;;;;8.73;5.15;;;18.40;52.20;;;;;;6091333;29;20031;-84
2021/03/26 15:32:03;;;;;;;11.57;7.57;;;18.40;53.50;;;;;;6090677;29;20470;-84
2021/03/26 15:35:24;;;;;;;12.40;7.35;;;18.30;54.80;;;;;;6077394;29;20058;-86
2021/03/26 15:38:31;;;;;;;7.90;5.75;;;18.30;54.20;;;;;;6105445;29;20051;-82
2021/03/26 15:41:39;;;;;;;16.75;6.55;;;18.20;53.50;;;;;;6106205;29;20027;-85
2021/03/26 15:45:03;;;;;;;6.32;5.40;;;18.10;53.80;;;;;;6091538;29;20047;-85
2021/03/26 15:48:54;;;;;;;7.05;6.15;;;18.00;54.00;;;;;;6106891;29;20090;-85
2021/03/26 15:52:21;;;;;;;8.40;6.35;;;17.90;56.80;;;;;;5991296;29;20067;-84
2021/03/26 15:55:49;;;;;;;7.82;6.38;;;17.80;58.10;;;;;;6107024;29;20067;-84
2021/03/26 15:59:01;;;;;;;7.68;5.60;;;17.60;55.70;;;;;;6091342;29;20490;-83
2021/03/26 16:02:28;;;;;;;9.32;5.53;;;17.60;56.30;;;;;;6078216;29;20103;-84
2021/03/26 16:05:50;;;;;;;6.50;5.85;;;17.50;57.70;;;;;;6093875;29;20044;-84
2021/03/26 16:09:12;;;;;;;11.93;6.72;;;17.30;58.60;;;;;;6126076;29;20063;-85
2021/03/26 16:12:24;;;;;;;14.10;9.53;;;17.20;58.20;;;;;;6077778;29;20118;-83
2021/03/26 16:15:46;;;;;;;18.17;13.35;;;16.90;58.30;;;;;;6092081;29;20298;-86
2021/03/26 16:19:09;;;;;;;10.85;8.55;;;16.90;60.10;;;;;;6090687;29;20484;-84
2021/03/26 16:22:28;;;;;;;9.65;6.95;;;16.90;60.90;;;;;;6105572;29;20443;-86
2021/03/26 16:25:35;;;;;;;7.35;6.65;;;16.50;60.30;;;;;;6123577;29;20031;-84
2021/03/26 16:28:57;;;;;;;9.20;6.30;;;16.50;61.20;;;;;;6105030;29;20040;-87
2021/03/26 16:32:31;;;;;;;7.63;6.38;;;16.40;61.80;;;;;;6104473;29;20494;-85
2021/03/26 16:35:38;;;;;;;11.63;6.90;;;16.30;61.90;;;;;;6104784;29;20047;-87
2021/03/26 16:38:45;;;;;;;7.82;6.03;;;16.20;88.20;;;;;;6105333;29;20131;-84
2021/03/26 16:42:04;;;;;;;10.20;6.50;;;16.30;59.70;;;;;;6089588;29;20387;-84
2021/03/26 16:45:20;;;;;;;10.43;6.70;;;16.20;60.00;;;;;;6105713;29;20047;-85
2021/03/26 16:48:59;;;;;;;11.35;6.13;;;16.30;60.50;;;;;;6088757;29;20043;-80
2021/03/26 16:52:24;;;;;;;7.40;5.97;;;16.10;60.60;;;;;;5979863;29;20081;-86